sensor_id;sensor_type;location;lat;lon;timestamp;temperature;humidity
21353;DHT22;10834;52.268;6.770;2022-10-22T00:01:04;12.20;99.90
21353;DHT22;10834;52.268;6.770;2022-10-22T00:03:50;12.20;99.90
21353;DHT22;10834;52.268;6.770;2022-10-22T00:06:36;12.20;99.90
21353;DHT22;10834;52.268;6.770;2022-10-22T00:09:22;12.10;99.90
21353;DHT22;10834;52.268;6.770;2022-10-22T00:12:09;12.10;99.90
21353;DHT22;10834;52.268;6.770;2022-10-22T00:14:55;12.10;99.90
21353;DHT22;10834;52.268;6.770;2022-10-22T00:17:41;12.10;99.90
21353;DHT22;10834;52.268;6.770;2022-10-22T00:20:27;12.10;99.90
21353;DHT22;10834;52.268;6.770;2022-10-22T00:23:13;12.10;99.90
21353;DHT22;10834;52.268;6.770;2022-10-22T00:25:59;12.20;99.90
21353;DHT22;10834;52.268;6.770;2022-10-22T00:28:45;12.20;99.90
21353;DHT22;10834;52.268;6.770;2022-10-22T00:31:31;12.20;99.90
21353;DHT22;10834;52.268;6.770;2022-10-22T00:34:19;12.30;99.90
21353;DHT22;10834;52.268;6.770;2022-10-22T00:37:06;12.40;99.90
21353;DHT22;10834;52.268;6.770;2022-10-22T00:39:52;12.40;99.90
21353;DHT22;10834;52.268;6.770;2022-10-22T00:42:38;12.40;99.90
21353;DHT22;10834;52.268;6.770;2022-10-22T00:45:25;12.50;99.90
21353;DHT22;10834;52.268;6.770;2022-10-22T00:48:22;12.50;99.90
21353;DHT22;10834;52.268;6.770;2022-10-22T00:51:08;12.50;99.90
21353;DHT22;10834;52.268;6.770;2022-10-22T00:53:59;12.50;99.90
21353;DHT22;10834;52.268;6.770;2022-10-22T00:56:46;12.40;99.90
21353;DHT22;10834;52.268;6.770;2022-10-22T00:59:34;12.40;99.90
21353;DHT22;10834;52.268;6.770;2022-10-22T01:02:21;12.40;99.90
21353;DHT22;10834;52.268;6.770;2022-10-22T01:05:07;12.40;99.90
21353;DHT22;10834;52.268;6.770;2022-10-22T01:07:53;12.40;99.90
21353;DHT22;10834;52.268;6.770;2022-10-22T01:10:53;12.50;99.90
21353;DHT22;10834;52.268;6.770;2022-10-22T01:13:52;12.50;99.90
21353;DHT22;10834;52.268;6.770;2022-10-22T01:17:06;12.50;99.90
21353;DHT22;10834;52.268;6.770;2022-10-22T01:23:01;12.50;99.90
21353;DHT22;10834;52.268;6.770;2022-10-22T01:29:07;12.40;99.90
21353;DHT22;10834;52.268;6.770;2022-10-22T01:31:59;12.40;99.90
21353;DHT22;10834;52.268;6.770;2022-10-22T01:34:59;12.30;99.90
21353;DHT22;10834;52.268;6.770;2022-10-22T01:37:49;12.30;99.90
21353;DHT22;10834;52.268;6.770;2022-10-22T01:40:38;12.30;99.90
21353;DHT22;10834;52.268;6.770;2022-10-22T01:43:24;12.20;99.90
21353;DHT22;10834;52.268;6.770;2022-10-22T01:46:11;12.30;99.90
21353;DHT22;10834;52.268;6.770;2022-10-22T01:49:03;12.30;99.90
21353;DHT22;10834;52.268;6.770;2022-10-22T01:52:12;12.30;99.90
21353;DHT22;10834;52.268;6.770;2022-10-22T01:58:22;12.10;99.90
21353;DHT22;10834;52.268;6.770;2022-10-22T02:07:51;11.90;99.90
21353;DHT22;10834;52.268;6.770;2022-10-22T02:10:42;11.80;99.90
21353;DHT22;10834;52.268;6.770;2022-10-22T02:13:42;11.80;99.90
21353;DHT22;10834;52.268;6.770;2022-10-22T02:16:39;11.70;99.90
21353;DHT22;10834;52.268;6.770;2022-10-22T02:19:56;11.70;99.90
21353;DHT22;10834;52.268;6.770;2022-10-22T02:22:42;11.70;99.90
21353;DHT22;10834;52.268;6.770;2022-10-22T02:25:31;11.70;99.90
21353;DHT22;10834;52.268;6.770;2022-10-22T02:28:22;11.70;99.90
21353;DHT22;10834;52.268;6.770;2022-10-22T02:31:18;11.70;99.90
21353;DHT22;10834;52.268;6.770;2022-10-22T02:34:13;11.60;99.90
21353;DHT22;10834;52.268;6.770;2022-10-22T02:37:01;11.60;99.90
21353;DHT22;10834;52.268;6.770;2022-10-22T02:39:48;11.50;99.90
21353;DHT22;10834;52.268;6.770;2022-10-22T02:42:35;11.50;99.90
21353;DHT22;10834;52.268;6.770;2022-10-22T02:45:22;11.50;99.90
21353;DHT22;10834;52.268;6.770;2022-10-22T02:48:08;11.50;99.90
21353;DHT22;10834;52.268;6.770;2022-10-22T02:50:55;11.50;99.90
21353;DHT22;10834;52.268;6.770;2022-10-22T02:53:41;11.50;99.90
21353;DHT22;10834;52.268;6.770;2022-10-22T02:56:27;11.50;99.90
21353;DHT22;10834;52.268;6.770;2022-10-22T02:59:13;11.40;99.90
21353;DHT22;10834;52.268;6.770;2022-10-22T03:01:59;11.40;99.90
21353;DHT22;10834;52.268;6.770;2022-10-22T03:04:45;11.40;99.90
21353;DHT22;10834;52.268;6.770;2022-10-22T03:07:31;11.30;99.90
21353;DHT22;10834;52.268;6.770;2022-10-22T03:10:17;11.30;99.90
21353;DHT22;10834;52.268;6.770;2022-10-22T03:13:03;11.30;99.90
21353;DHT22;10834;52.268;6.770;2022-10-22T03:15:49;11.30;99.90
21353;DHT22;10834;52.268;6.770;2022-10-22T03:18:35;11.30;99.90
21353;DHT22;10834;52.268;6.770;2022-10-22T03:21:35;11.20;99.90
21353;DHT22;10834;52.268;6.770;2022-10-22T03:24:34;11.20;99.90
21353;DHT22;10834;52.268;6.770;2022-10-22T03:27:22;11.20;99.90
21353;DHT22;10834;52.268;6.770;2022-10-22T03:30:09;11.10;99.90
21353;DHT22;10834;52.268;6.770;2022-10-22T03:32:55;11.10;99.90
21353;DHT22;10834;52.268;6.770;2022-10-22T03:35:43;11.10;99.90
21353;DHT22;10834;52.268;6.770;2022-10-22T03:38:30;11.10;99.90
21353;DHT22;10834;52.268;6.770;2022-10-22T03:41:17;11.10;99.90
21353;DHT22;10834;52.268;6.770;2022-10-22T03:44:03;11.10;99.90
21353;DHT22;10834;52.268;6.770;2022-10-22T03:46:50;11.20;99.90
21353;DHT22;10834;52.268;6.770;2022-10-22T03:49:36;11.20;99.90
21353;DHT22;10834;52.268;6.770;2022-10-22T03:52:22;11.30;99.90
21353;DHT22;10834;52.268;6.770;2022-10-22T03:55:08;11.40;99.90
21353;DHT22;10834;52.268;6.770;2022-10-22T03:57:54;11.50;99.90
21353;DHT22;10834;52.268;6.770;2022-10-22T04:00:41;11.50;99.90
21353;DHT22;10834;52.268;6.770;2022-10-22T04:03:27;11.50;99.90
21353;DHT22;10834;52.268;6.770;2022-10-22T04:06:14;11.50;99.90
21353;DHT22;10834;52.268;6.770;2022-10-22T04:09:00;11.50;99.90
21353;DHT22;10834;52.268;6.770;2022-10-22T04:11:46;11.50;99.90
21353;DHT22;10834;52.268;6.770;2022-10-22T04:14:33;11.50;99.90
21353;DHT22;10834;52.268;6.770;2022-10-22T04:17:19;11.50;99.90
21353;DHT22;10834;52.268;6.770;2022-10-22T04:20:05;11.50;99.90
21353;DHT22;10834;52.268;6.770;2022-10-22T04:22:51;11.50;99.90
21353;DHT22;10834;52.268;6.770;2022-10-22T04:25:38;11.50;99.90
21353;DHT22;10834;52.268;6.770;2022-10-22T04:28:24;11.40;99.90
21353;DHT22;10834;52.268;6.770;2022-10-22T04:31:12;11.40;99.90
21353;DHT22;10834;52.268;6.770;2022-10-22T04:33:59;11.40;99.90
21353;DHT22;10834;52.268;6.770;2022-10-22T04:36:45;11.50;99.90
21353;DHT22;10834;52.268;6.770;2022-10-22T04:39:31;11.50;99.90
21353;DHT22;10834;52.268;6.770;2022-10-22T04:42:17;11.50;99.90
21353;DHT22;10834;52.268;6.770;2022-10-22T04:45:04;11.60;99.90
21353;DHT22;10834;52.268;6.770;2022-10-22T04:47:50;11.60;99.90
21353;DHT22;10834;52.268;6.770;2022-10-22T04:50:36;11.70;99.90
21353;DHT22;10834;52.268;6.770;2022-10-22T04:53:22;11.70;99.90
21353;DHT22;10834;52.268;6.770;2022-10-22T04:56:16;11.80;99.90
21353;DHT22;10834;52.268;6.770;2022-10-22T04:59:07;11.80;99.90
21353;DHT22;10834;52.268;6.770;2022-10-22T05:01:53;11.80;99.90
21353;DHT22;10834;52.268;6.770;2022-10-22T05:04:42;11.80;99.90
21353;DHT22;10834;52.268;6.770;2022-10-22T05:07:28;11.80;99.90
21353;DHT22;10834;52.268;6.770;2022-10-22T05:10:14;11.80;99.90
21353;DHT22;10834;52.268;6.770;2022-10-22T05:13:00;11.90;99.90
21353;DHT22;10834;52.268;6.770;2022-10-22T05:15:46;12.00;99.90
21353;DHT22;10834;52.268;6.770;2022-10-22T05:18:40;12.10;99.90
21353;DHT22;10834;52.268;6.770;2022-10-22T05:21:27;12.10;99.90
21353;DHT22;10834;52.268;6.770;2022-10-22T05:24:13;12.00;99.90
21353;DHT22;10834;52.268;6.770;2022-10-22T05:26:59;12.10;99.90
21353;DHT22;10834;52.268;6.770;2022-10-22T05:29:45;12.10;99.90
21353;DHT22;10834;52.268;6.770;2022-10-22T05:32:34;12.20;99.90
21353;DHT22;10834;52.268;6.770;2022-10-22T05:35:20;12.20;99.90
21353;DHT22;10834;52.268;6.770;2022-10-22T05:38:06;12.20;99.90
21353;DHT22;10834;52.268;6.770;2022-10-22T05:41:02;12.10;99.90
21353;DHT22;10834;52.268;6.770;2022-10-22T05:43:48;12.20;99.90
21353;DHT22;10834;52.268;6.770;2022-10-22T05:46:35;12.20;99.90
21353;DHT22;10834;52.268;6.770;2022-10-22T05:49:21;12.30;99.90
21353;DHT22;10834;52.268;6.770;2022-10-22T05:52:07;12.30;99.90
21353;DHT22;10834;52.268;6.770;2022-10-22T05:54:53;12.30;99.90
21353;DHT22;10834;52.268;6.770;2022-10-22T05:57:39;12.30;99.90
21353;DHT22;10834;52.268;6.770;2022-10-22T06:00:25;12.30;99.90
21353;DHT22;10834;52.268;6.770;2022-10-22T06:03:11;12.30;99.90
21353;DHT22;10834;52.268;6.770;2022-10-22T06:06:03;12.30;99.90
21353;DHT22;10834;52.268;6.770;2022-10-22T06:08:52;12.30;99.90
21353;DHT22;10834;52.268;6.770;2022-10-22T06:11:38;12.30;99.90
21353;DHT22;10834;52.268;6.770;2022-10-22T06:14:25;12.30;99.90
21353;DHT22;10834;52.268;6.770;2022-10-22T06:17:12;12.30;99.90
21353;DHT22;10834;52.268;6.770;2022-10-22T06:19:58;12.30;99.90
21353;DHT22;10834;52.268;6.770;2022-10-22T06:22:44;12.30;99.90
21353;DHT22;10834;52.268;6.770;2022-10-22T06:25:30;12.40;99.90
21353;DHT22;10834;52.268;6.770;2022-10-22T06:28:16;12.40;99.90
21353;DHT22;10834;52.268;6.770;2022-10-22T06:31:03;12.50;99.90
21353;DHT22;10834;52.268;6.770;2022-10-22T06:33:49;12.50;99.90
21353;DHT22;10834;52.268;6.770;2022-10-22T06:36:35;12.50;99.90
21353;DHT22;10834;52.268;6.770;2022-10-22T06:39:21;12.60;99.90
21353;DHT22;10834;52.268;6.770;2022-10-22T06:42:07;12.60;99.90
21353;DHT22;10834;52.268;6.770;2022-10-22T06:44:53;12.70;99.90
21353;DHT22;10834;52.268;6.770;2022-10-22T06:47:39;12.70;99.90
21353;DHT22;10834;52.268;6.770;2022-10-22T06:50:26;12.80;99.90
21353;DHT22;10834;52.268;6.770;2022-10-22T06:53:12;12.90;99.90
21353;DHT22;10834;52.268;6.770;2022-10-22T06:55:58;12.90;99.90
21353;DHT22;10834;52.268;6.770;2022-10-22T06:58:51;13.00;99.90
21353;DHT22;10834;52.268;6.770;2022-10-22T07:01:38;13.10;99.90
21353;DHT22;10834;52.268;6.770;2022-10-22T07:04:24;13.10;99.90
21353;DHT22;10834;52.268;6.770;2022-10-22T07:07:10;13.00;99.90
21353;DHT22;10834;52.268;6.770;2022-10-22T07:09:56;13.20;99.90
21353;DHT22;10834;52.268;6.770;2022-10-22T07:12:42;13.20;99.90
21353;DHT22;10834;52.268;6.770;2022-10-22T07:15:28;13.20;99.90
21353;DHT22;10834;52.268;6.770;2022-10-22T07:18:14;13.20;99.90
21353;DHT22;10834;52.268;6.770;2022-10-22T07:21:00;13.20;99.90
21353;DHT22;10834;52.268;6.770;2022-10-22T07:23:47;13.30;99.90
21353;DHT22;10834;52.268;6.770;2022-10-22T07:26:33;13.40;99.90
21353;DHT22;10834;52.268;6.770;2022-10-22T07:29:19;13.40;99.90
21353;DHT22;10834;52.268;6.770;2022-10-22T07:32:05;13.50;99.90
21353;DHT22;10834;52.268;6.770;2022-10-22T07:34:51;13.50;99.90
21353;DHT22;10834;52.268;6.770;2022-10-22T07:37:37;13.60;99.90
21353;DHT22;10834;52.268;6.770;2022-10-22T07:40:23;13.90;99.90
21353;DHT22;10834;52.268;6.770;2022-10-22T07:43:09;14.20;99.90
21353;DHT22;10834;52.268;6.770;2022-10-22T07:45:55;14.30;99.90
21353;DHT22;10834;52.268;6.770;2022-10-22T07:48:41;14.30;99.90
21353;DHT22;10834;52.268;6.770;2022-10-22T07:51:27;14.30;99.90
21353;DHT22;10834;52.268;6.770;2022-10-22T07:54:13;14.30;99.90
21353;DHT22;10834;52.268;6.770;2022-10-22T07:56:59;14.40;99.90
21353;DHT22;10834;52.268;6.770;2022-10-22T07:59:45;14.60;99.90
21353;DHT22;10834;52.268;6.770;2022-10-22T08:02:32;14.70;99.90
21353;DHT22;10834;52.268;6.770;2022-10-22T08:05:18;14.80;99.90
21353;DHT22;10834;52.268;6.770;2022-10-22T08:08:05;15.00;99.90
21353;DHT22;10834;52.268;6.770;2022-10-22T08:10:52;15.30;99.90
21353;DHT22;10834;52.268;6.770;2022-10-22T08:13:38;15.50;99.90
21353;DHT22;10834;52.268;6.770;2022-10-22T08:16:24;15.60;99.90
21353;DHT22;10834;52.268;6.770;2022-10-22T08:19:11;15.60;99.90
21353;DHT22;10834;52.268;6.770;2022-10-22T08:21:58;15.60;99.90
21353;DHT22;10834;52.268;6.770;2022-10-22T08:24:44;15.60;99.90
21353;DHT22;10834;52.268;6.770;2022-10-22T08:27:31;15.60;99.90
21353;DHT22;10834;52.268;6.770;2022-10-22T08:30:17;15.70;99.90
21353;DHT22;10834;52.268;6.770;2022-10-22T08:33:04;15.70;99.90
21353;DHT22;10834;52.268;6.770;2022-10-22T08:35:51;15.70;99.90
21353;DHT22;10834;52.268;6.770;2022-10-22T08:38:37;15.80;99.90
21353;DHT22;10834;52.268;6.770;2022-10-22T08:41:23;16.00;99.90
21353;DHT22;10834;52.268;6.770;2022-10-22T08:49:52;16.90;99.90
21353;DHT22;10834;52.268;6.770;2022-10-22T08:52:41;17.20;99.90
21353;DHT22;10834;52.268;6.770;2022-10-22T08:55:29;17.50;99.90
21353;DHT22;10834;52.268;6.770;2022-10-22T09:01:13;17.70;99.90
21353;DHT22;10834;52.268;6.770;2022-10-22T09:07:08;17.30;99.90
21353;DHT22;10834;52.268;6.770;2022-10-22T09:09:56;17.10;99.90
21353;DHT22;10834;52.268;6.770;2022-10-22T09:12:47;17.00;99.90
21353;DHT22;10834;52.268;6.770;2022-10-22T09:15:33;16.90;99.90
21353;DHT22;10834;52.268;6.770;2022-10-22T09:18:46;16.90;99.90
21353;DHT22;10834;52.268;6.770;2022-10-22T09:25:22;17.10;99.90
21353;DHT22;10834;52.268;6.770;2022-10-22T09:28:10;17.20;99.90
21353;DHT22;10834;52.268;6.770;2022-10-22T09:30:56;17.30;99.90
21353;DHT22;10834;52.268;6.770;2022-10-22T09:33:45;17.40;99.90
21353;DHT22;10834;52.268;6.770;2022-10-22T09:36:33;17.50;99.90
21353;DHT22;10834;52.268;6.770;2022-10-22T09:39:32;17.70;99.90
21353;DHT22;10834;52.268;6.770;2022-10-22T09:42:19;18.10;99.90
21353;DHT22;10834;52.268;6.770;2022-10-22T09:45:13;18.40;99.90
21353;DHT22;10834;52.268;6.770;2022-10-22T09:48:31;18.40;99.90
21353;DHT22;10834;52.268;6.770;2022-10-22T09:51:21;18.20;99.90
21353;DHT22;10834;52.268;6.770;2022-10-22T09:57:21;18.00;99.90
21353;DHT22;10834;52.268;6.770;2022-10-22T10:00:08;17.90;99.90
21353;DHT22;10834;52.268;6.770;2022-10-22T10:02:58;17.70;99.90
21353;DHT22;10834;52.268;6.770;2022-10-22T10:05:51;17.50;99.90
21353;DHT22;10834;52.268;6.770;2022-10-22T10:08:37;17.40;99.90
21353;DHT22;10834;52.268;6.770;2022-10-22T10:11:36;17.30;99.90
21353;DHT22;10834;52.268;6.770;2022-10-22T10:18:03;17.00;99.90
21353;DHT22;10834;52.268;6.770;2022-10-22T10:24:28;17.10;99.90
21353;DHT22;10834;52.268;6.770;2022-10-22T10:27:36;17.10;99.90
21353;DHT22;10834;52.268;6.770;2022-10-22T10:30:24;17.10;99.90
21353;DHT22;10834;52.268;6.770;2022-10-22T10:36:42;17.10;99.90
21353;DHT22;10834;52.268;6.770;2022-10-22T10:42:56;17.00;99.90
21353;DHT22;10834;52.268;6.770;2022-10-22T10:55:17;16.40;99.90
21353;DHT22;10834;52.268;6.770;2022-10-22T11:01:47;16.30;99.90
21353;DHT22;10834;52.268;6.770;2022-10-22T11:08:25;16.50;99.90
21353;DHT22;10834;52.268;6.770;2022-10-22T11:11:29;16.70;99.90
21353;DHT22;10834;52.268;6.770;2022-10-22T11:17:17;17.20;99.90
21353;DHT22;10834;52.268;6.770;2022-10-22T11:20:17;17.30;99.90
21353;DHT22;10834;52.268;6.770;2022-10-22T11:23:10;17.20;99.90
21353;DHT22;10834;52.268;6.770;2022-10-22T11:25:58;17.20;99.90
21353;DHT22;10834;52.268;6.770;2022-10-22T11:28:51;17.10;99.90
21353;DHT22;10834;52.268;6.770;2022-10-22T11:31:38;17.00;99.90
21353;DHT22;10834;52.268;6.770;2022-10-22T11:34:46;17.00;99.90
21353;DHT22;10834;52.268;6.770;2022-10-22T11:37:34;17.00;99.90
21353;DHT22;10834;52.268;6.770;2022-10-22T11:40:37;17.10;99.90
21353;DHT22;10834;52.268;6.770;2022-10-22T11:43:32;17.20;99.90
21353;DHT22;10834;52.268;6.770;2022-10-22T11:52:22;17.20;99.90
21353;DHT22;10834;52.268;6.770;2022-10-22T11:55:33;17.10;99.90
21353;DHT22;10834;52.268;6.770;2022-10-22T12:01:29;17.10;99.90
21353;DHT22;10834;52.268;6.770;2022-10-22T12:04:39;17.10;99.90
21353;DHT22;10834;52.268;6.770;2022-10-22T12:11:03;17.40;99.90
21353;DHT22;10834;52.268;6.770;2022-10-22T12:16:52;17.80;99.90
21353;DHT22;10834;52.268;6.770;2022-10-22T12:19:43;18.00;99.90
21353;DHT22;10834;52.268;6.770;2022-10-22T12:22:31;18.10;99.90
21353;DHT22;10834;52.268;6.770;2022-10-22T12:25:22;18.10;99.90
21353;DHT22;10834;52.268;6.770;2022-10-22T12:28:11;18.10;99.90
21353;DHT22;10834;52.268;6.770;2022-10-22T12:30:58;18.10;99.90
21353;DHT22;10834;52.268;6.770;2022-10-22T12:33:44;18.10;99.90
21353;DHT22;10834;52.268;6.770;2022-10-22T12:36:35;18.00;99.90
21353;DHT22;10834;52.268;6.770;2022-10-22T12:39:25;17.90;99.90
21353;DHT22;10834;52.268;6.770;2022-10-22T12:42:16;18.00;99.90
21353;DHT22;10834;52.268;6.770;2022-10-22T12:45:02;17.80;99.90
21353;DHT22;10834;52.268;6.770;2022-10-22T12:47:51;17.70;99.90
21353;DHT22;10834;52.268;6.770;2022-10-22T12:50:43;17.70;99.90
21353;DHT22;10834;52.268;6.770;2022-10-22T12:53:38;17.70;99.90
21353;DHT22;10834;52.268;6.770;2022-10-22T12:56:30;17.80;99.90
21353;DHT22;10834;52.268;6.770;2022-10-22T12:59:28;17.80;99.90
21353;DHT22;10834;52.268;6.770;2022-10-22T13:02:24;17.60;99.90
21353;DHT22;10834;52.268;6.770;2022-10-22T13:08:20;17.40;99.90
21353;DHT22;10834;52.268;6.770;2022-10-22T13:11:09;17.40;99.90
21353;DHT22;10834;52.268;6.770;2022-10-22T13:14:03;17.50;99.90
21353;DHT22;10834;52.268;6.770;2022-10-22T13:20:21;17.70;99.90
21353;DHT22;10834;52.268;6.770;2022-10-22T13:23:19;17.90;99.90
21353;DHT22;10834;52.268;6.770;2022-10-22T13:26:14;17.90;99.90
21353;DHT22;10834;52.268;6.770;2022-10-22T13:29:07;17.80;99.90
21353;DHT22;10834;52.268;6.770;2022-10-22T13:31:54;17.80;99.90
21353;DHT22;10834;52.268;6.770;2022-10-22T13:34:40;17.70;99.90
21353;DHT22;10834;52.268;6.770;2022-10-22T13:37:30;17.60;99.90
21353;DHT22;10834;52.268;6.770;2022-10-22T13:40:17;17.50;99.90
21353;DHT22;10834;52.268;6.770;2022-10-22T13:43:03;17.60;99.90
21353;DHT22;10834;52.268;6.770;2022-10-22T13:45:53;17.60;99.90
21353;DHT22;10834;52.268;6.770;2022-10-22T13:48:39;17.40;99.90
21353;DHT22;10834;52.268;6.770;2022-10-22T13:51:32;17.20;99.90
21353;DHT22;10834;52.268;6.770;2022-10-22T13:54:23;17.10;99.90
21353;DHT22;10834;52.268;6.770;2022-10-22T13:57:09;16.90;99.90
21353;DHT22;10834;52.268;6.770;2022-10-22T13:59:55;16.80;99.90
21353;DHT22;10834;52.268;6.770;2022-10-22T14:02:42;16.70;99.90
21353;DHT22;10834;52.268;6.770;2022-10-22T14:05:29;16.60;99.90
21353;DHT22;10834;52.268;6.770;2022-10-22T14:08:22;16.50;99.90
21353;DHT22;10834;52.268;6.770;2022-10-22T14:11:11;16.50;99.90
21353;DHT22;10834;52.268;6.770;2022-10-22T14:13:57;16.40;99.90
21353;DHT22;10834;52.268;6.770;2022-10-22T14:16:43;16.30;99.90
21353;DHT22;10834;52.268;6.770;2022-10-22T14:19:30;16.20;99.90
21353;DHT22;10834;52.268;6.770;2022-10-22T14:22:17;16.10;99.90
21353;DHT22;10834;52.268;6.770;2022-10-22T14:25:04;16.10;99.90
21353;DHT22;10834;52.268;6.770;2022-10-22T14:27:51;16.00;99.90
21353;DHT22;10834;52.268;6.770;2022-10-22T14:30:38;16.00;99.90
21353;DHT22;10834;52.268;6.770;2022-10-22T14:33:30;15.90;99.90
21353;DHT22;10834;52.268;6.770;2022-10-22T14:36:18;15.90;99.90
21353;DHT22;10834;52.268;6.770;2022-10-22T14:39:04;15.80;99.90
21353;DHT22;10834;52.268;6.770;2022-10-22T14:41:50;15.70;99.90
21353;DHT22;10834;52.268;6.770;2022-10-22T14:44:36;15.70;99.90
21353;DHT22;10834;52.268;6.770;2022-10-22T14:47:22;15.60;99.90
21353;DHT22;10834;52.268;6.770;2022-10-22T14:50:09;15.60;99.90
21353;DHT22;10834;52.268;6.770;2022-10-22T14:52:55;15.60;99.90
21353;DHT22;10834;52.268;6.770;2022-10-22T14:55:44;15.50;99.90
21353;DHT22;10834;52.268;6.770;2022-10-22T14:58:31;15.50;99.90
21353;DHT22;10834;52.268;6.770;2022-10-22T15:01:18;15.40;99.90
21353;DHT22;10834;52.268;6.770;2022-10-22T15:04:04;15.40;99.90
21353;DHT22;10834;52.268;6.770;2022-10-22T15:06:50;15.30;99.90
21353;DHT22;10834;52.268;6.770;2022-10-22T15:09:41;15.30;99.90
21353;DHT22;10834;52.268;6.770;2022-10-22T15:12:26;15.40;99.90
21353;DHT22;10834;52.268;6.770;2022-10-22T15:15:12;15.40;99.90
21353;DHT22;10834;52.268;6.770;2022-10-22T15:17:59;15.30;99.90
21353;DHT22;10834;52.268;6.770;2022-10-22T15:20:44;15.30;99.90
21353;DHT22;10834;52.268;6.770;2022-10-22T15:23:31;15.30;99.90
21353;DHT22;10834;52.268;6.770;2022-10-22T15:26:17;15.30;99.90
21353;DHT22;10834;52.268;6.770;2022-10-22T15:29:04;15.20;99.90
21353;DHT22;10834;52.268;6.770;2022-10-22T15:31:53;15.10;99.90
21353;DHT22;10834;52.268;6.770;2022-10-22T15:34:39;15.00;99.90
21353;DHT22;10834;52.268;6.770;2022-10-22T15:37:25;14.90;99.90
21353;DHT22;10834;52.268;6.770;2022-10-22T15:40:11;14.80;99.90
21353;DHT22;10834;52.268;6.770;2022-10-22T15:42:57;14.80;99.90
21353;DHT22;10834;52.268;6.770;2022-10-22T15:45:46;14.70;99.90
21353;DHT22;10834;52.268;6.770;2022-10-22T15:48:45;14.70;99.90
21353;DHT22;10834;52.268;6.770;2022-10-22T15:51:31;14.70;99.90
21353;DHT22;10834;52.268;6.770;2022-10-22T15:54:21;14.70;99.90
21353;DHT22;10834;52.268;6.770;2022-10-22T15:57:08;14.70;99.90
21353;DHT22;10834;52.268;6.770;2022-10-22T15:59:55;14.60;99.90
21353;DHT22;10834;52.268;6.770;2022-10-22T16:02:41;14.60;99.90
21353;DHT22;10834;52.268;6.770;2022-10-22T16:05:27;14.50;99.90
21353;DHT22;10834;52.268;6.770;2022-10-22T16:08:13;14.50;99.90
21353;DHT22;10834;52.268;6.770;2022-10-22T16:10:59;14.40;99.90
21353;DHT22;10834;52.268;6.770;2022-10-22T16:13:45;14.30;99.90
21353;DHT22;10834;52.268;6.770;2022-10-22T16:16:34;14.30;99.90
21353;DHT22;10834;52.268;6.770;2022-10-22T16:19:22;14.30;99.90
21353;DHT22;10834;52.268;6.770;2022-10-22T16:22:09;14.20;99.90
21353;DHT22;10834;52.268;6.770;2022-10-22T16:24:56;14.10;99.90
21353;DHT22;10834;52.268;6.770;2022-10-22T16:27:42;14.10;99.90
21353;DHT22;10834;52.268;6.770;2022-10-22T16:30:28;14.10;99.90
21353;DHT22;10834;52.268;6.770;2022-10-22T16:33:14;14.10;99.90
21353;DHT22;10834;52.268;6.770;2022-10-22T16:36:00;14.00;99.90
21353;DHT22;10834;52.268;6.770;2022-10-22T16:38:47;14.00;99.90
21353;DHT22;10834;52.268;6.770;2022-10-22T16:41:34;14.00;99.90
21353;DHT22;10834;52.268;6.770;2022-10-22T16:44:21;14.00;99.90
21353;DHT22;10834;52.268;6.770;2022-10-22T16:47:07;14.10;99.90
21353;DHT22;10834;52.268;6.770;2022-10-22T16:49:53;14.10;99.90
21353;DHT22;10834;52.268;6.770;2022-10-22T16:52:39;14.10;99.90
21353;DHT22;10834;52.268;6.770;2022-10-22T16:55:25;14.10;99.90
21353;DHT22;10834;52.268;6.770;2022-10-22T16:58:11;14.00;99.90
21353;DHT22;10834;52.268;6.770;2022-10-22T17:00:57;14.00;99.90
21353;DHT22;10834;52.268;6.770;2022-10-22T17:03:43;14.00;99.90
21353;DHT22;10834;52.268;6.770;2022-10-22T17:06:29;13.90;99.90
21353;DHT22;10834;52.268;6.770;2022-10-22T17:09:15;13.90;99.90
21353;DHT22;10834;52.268;6.770;2022-10-22T17:12:01;13.90;99.90
21353;DHT22;10834;52.268;6.770;2022-10-22T17:14:47;13.90;99.90
21353;DHT22;10834;52.268;6.770;2022-10-22T17:17:33;13.90;99.90
21353;DHT22;10834;52.268;6.770;2022-10-22T17:20:19;13.90;99.90
21353;DHT22;10834;52.268;6.770;2022-10-22T17:23:06;13.80;99.90
21353;DHT22;10834;52.268;6.770;2022-10-22T17:25:58;13.80;99.90
21353;DHT22;10834;52.268;6.770;2022-10-22T17:28:44;13.70;99.90
21353;DHT22;10834;52.268;6.770;2022-10-22T17:31:32;13.50;99.90
21353;DHT22;10834;52.268;6.770;2022-10-22T17:34:20;13.40;99.90
21353;DHT22;10834;52.268;6.770;2022-10-22T17:37:06;13.40;99.90
21353;DHT22;10834;52.268;6.770;2022-10-22T17:39:52;13.30;99.90
21353;DHT22;10834;52.268;6.770;2022-10-22T17:42:38;13.20;99.90
21353;DHT22;10834;52.268;6.770;2022-10-22T17:45:24;13.20;99.90
21353;DHT22;10834;52.268;6.770;2022-10-22T17:48:10;13.10;99.90
21353;DHT22;10834;52.268;6.770;2022-10-22T17:50:56;13.10;99.90
21353;DHT22;10834;52.268;6.770;2022-10-22T17:53:42;13.10;99.90
21353;DHT22;10834;52.268;6.770;2022-10-22T17:56:30;13.10;99.90
21353;DHT22;10834;52.268;6.770;2022-10-22T17:59:16;13.00;99.90
21353;DHT22;10834;52.268;6.770;2022-10-22T18:02:03;13.10;99.90
21353;DHT22;10834;52.268;6.770;2022-10-22T18:04:51;13.10;99.90
21353;DHT22;10834;52.268;6.770;2022-10-22T18:07:37;13.20;99.90
21353;DHT22;10834;52.268;6.770;2022-10-22T18:10:23;13.20;99.90
21353;DHT22;10834;52.268;6.770;2022-10-22T18:13:09;13.20;99.90
21353;DHT22;10834;52.268;6.770;2022-10-22T18:15:55;13.20;99.90
21353;DHT22;10834;52.268;6.770;2022-10-22T18:18:44;13.10;99.90
21353;DHT22;10834;52.268;6.770;2022-10-22T18:21:31;13.10;99.90
21353;DHT22;10834;52.268;6.770;2022-10-22T18:24:17;13.00;99.90
21353;DHT22;10834;52.268;6.770;2022-10-22T18:27:03;12.90;99.90
21353;DHT22;10834;52.268;6.770;2022-10-22T18:29:50;12.90;99.90
21353;DHT22;10834;52.268;6.770;2022-10-22T18:32:36;12.80;99.90
21353;DHT22;10834;52.268;6.770;2022-10-22T18:35:22;12.80;99.90
21353;DHT22;10834;52.268;6.770;2022-10-22T18:38:09;12.70;99.90
21353;DHT22;10834;52.268;6.770;2022-10-22T18:40:55;12.70;99.90
21353;DHT22;10834;52.268;6.770;2022-10-22T18:43:41;12.70;99.90
21353;DHT22;10834;52.268;6.770;2022-10-22T18:46:28;12.70;99.90
21353;DHT22;10834;52.268;6.770;2022-10-22T18:49:18;12.60;99.90
21353;DHT22;10834;52.268;6.770;2022-10-22T18:52:04;12.60;99.90
21353;DHT22;10834;52.268;6.770;2022-10-22T18:54:50;12.60;99.90
21353;DHT22;10834;52.268;6.770;2022-10-22T18:57:36;12.60;99.90
21353;DHT22;10834;52.268;6.770;2022-10-22T19:00:22;12.50;99.90
21353;DHT22;10834;52.268;6.770;2022-10-22T19:03:12;12.50;99.90
21353;DHT22;10834;52.268;6.770;2022-10-22T19:05:59;12.40;99.90
21353;DHT22;10834;52.268;6.770;2022-10-22T19:08:46;12.50;99.90
21353;DHT22;10834;52.268;6.770;2022-10-22T19:11:32;12.40;99.90
21353;DHT22;10834;52.268;6.770;2022-10-22T19:14:18;12.40;99.90